Aérodrome :
LOGIN :

S'inscrire | Disclaimer

   EN    FR    IT 

 










Légende :    VFR   VFR Marginal   IFR   IFR Intensif   IFR Très Intensif
Visi : 
Plafond : 
>= 8 km
>= 3000ft
5 à 8 km
1000 à 3000 ft
1500m à 5 km
500 à 1000 ft
800 à 1500m
200 à 500 ft
< 800m
< 200 ft
Symboles :   Orages  Brouillard  Fortes neiges  Fortes précipitations  Vent > 20 kt
SIGMETs :   Divers  Orages  Givrage  Turbulence  Onde Orograph.  Cendres Volcan.







- Altitude de l'aérodrome : 659 ft
- Code IATA : LGG


EBLG - Liège

DERNIER METAR :
  • 241720Z 33008KT 290V360 9999 FEW032 22/10 Q1024 NOSIG

METARs EXPIRÉS :
  • 241650Z 33009KT 290V010 9999 FEW032 22/09 Q1024 NOSIG
  • 241620Z 32009KT 9999 FEW032 22/10 Q1024 NOSIG
  • 241550Z 31007KT 290V350 9999 FEW032 22/11 Q1024 NOSIG
  • 241520Z 31008KT 270V340 9999 FEW032 22/13 Q1024 NOSIG
  • 241450Z 32007KT 270V350 9999 FEW032 21/13 Q1024 NOSIG
  • 241420Z 30006KT 260V330 9999 FEW032 20/13 Q1024 NOSIG

TAF TAF EBLG
Valide du 24 à 18h jusqu'au 26 à 00h UTC


241710Z 2418/2524 35005KT 9999 FEW030
PROB40 2500/2507 3000 BR BKN006
PROB30
TEMPO 2503/2506 1200 BCFG BKN003
Pas de NOTAMs connus pour ce terrain.



MET'MAP, la Météo Aéronautique d'un coup d'oeil ! - Copyright ORBIFLY Décembre 2007 - Disclaimer

ORBIFLY MET'MAP TEAM :

Programmation & Développement : Alexandra Zaïnal
Conception & Développement : Baudouin d'Aumeries
Co-Programmation & Développement : Marc-Olivier Méhu
Soutien technique & logistique : Manuel Goepfert

Contact : metmap@orbifly.com




SOURCES & CREDITS :

   NOAA